sensor_id;sensor_type;location;lat;lon;timestamp;P1;durP1;ratioP1;P2;durP2;ratioP2
14704;SDS011;7442;50.840;3.396;2023-05-28T00:00:35;6.90;;;2.98;;
14704;SDS011;7442;50.840;3.396;2023-05-28T00:03:21;8.38;;;3.30;;
14704;SDS011;7442;50.840;3.396;2023-05-28T00:06:09;5.30;;;3.15;;
14704;SDS011;7442;50.840;3.396;2023-05-28T00:08:56;5.47;;;3.00;;
14704;SDS011;7442;50.840;3.396;2023-05-28T00:11:42;9.68;;;3.40;;
14704;SDS011;7442;50.840;3.396;2023-05-28T00:14:28;5.72;;;2.67;;
14704;SDS011;7442;50.840;3.396;2023-05-28T00:17:15;5.08;;;2.90;;
14704;SDS011;7442;50.840;3.396;2023-05-28T00:20:03;4.90;;;3.05;;
14704;SDS011;7442;50.840;3.396;2023-05-28T00:22:50;7.30;;;2.80;;
14704;SDS011;7442;50.840;3.396;2023-05-28T00:25:36;5.00;;;2.90;;
14704;SDS011;7442;50.840;3.396;2023-05-28T00:28:22;5.12;;;2.92;;
14704;SDS011;7442;50.840;3.396;2023-05-28T00:31:08;4.15;;;2.85;;
14704;SDS011;7442;50.840;3.396;2023-05-28T00:33:55;7.00;;;3.00;;
14704;SDS011;7442;50.840;3.396;2023-05-28T00:36:41;4.70;;;2.62;;
14704;SDS011;7442;50.840;3.396;2023-05-28T00:39:27;4.45;;;2.98;;
14704;SDS011;7442;50.840;3.396;2023-05-28T00:42:14;5.20;;;2.77;;
14704;SDS011;7442;50.840;3.396;2023-05-28T00:45:00;6.83;;;3.05;;
14704;SDS011;7442;50.840;3.396;2023-05-28T00:47:46;7.75;;;2.70;;
14704;SDS011;7442;50.840;3.396;2023-05-28T00:50:33;5.45;;;2.80;;
14704;SDS011;7442;50.840;3.396;2023-05-28T00:53:20;6.12;;;3.30;;
14704;SDS011;7442;50.840;3.396;2023-05-28T00:56:06;4.62;;;2.90;;
14704;SDS011;7442;50.840;3.396;2023-05-28T00:59:01;5.83;;;3.00;;
14704;SDS011;7442;50.840;3.396;2023-05-28T01:01:48;5.85;;;3.00;;
14704;SDS011;7442;50.840;3.396;2023-05-28T01:04:34;4.25;;;2.85;;
14704;SDS011;7442;50.840;3.396;2023-05-28T01:07:21;5.10;;;3.10;;
14704;SDS011;7442;50.840;3.396;2023-05-28T01:10:07;5.67;;;3.08;;
14704;SDS011;7442;50.840;3.396;2023-05-28T01:12:54;4.33;;;2.87;;
14704;SDS011;7442;50.840;3.396;2023-05-28T01:15:41;4.75;;;3.02;;
14704;SDS011;7442;50.840;3.396;2023-05-28T01:18:28;5.00;;;2.90;;
14704;SDS011;7442;50.840;3.396;2023-05-28T01:21:17;4.28;;;3.00;;
14704;SDS011;7442;50.840;3.396;2023-05-28T01:24:04;3.95;;;2.60;;
14704;SDS011;7442;50.840;3.396;2023-05-28T01:26:50;4.15;;;2.80;;
14704;SDS011;7442;50.840;3.396;2023-05-28T01:29:37;5.40;;;2.67;;
14704;SDS011;7442;50.840;3.396;2023-05-28T01:32:23;7.37;;;3.47;;
14704;SDS011;7442;50.840;3.396;2023-05-28T01:35:10;5.03;;;3.20;;
14704;SDS011;7442;50.840;3.396;2023-05-28T01:37:56;5.00;;;3.17;;
14704;SDS011;7442;50.840;3.396;2023-05-28T01:40:47;8.05;;;2.98;;
14704;SDS011;7442;50.840;3.396;2023-05-28T01:43:34;4.87;;;3.22;;
14704;SDS011;7442;50.840;3.396;2023-05-28T01:46:21;4.20;;;2.85;;
14704;SDS011;7442;50.840;3.396;2023-05-28T01:49:08;4.70;;;2.90;;
14704;SDS011;7442;50.840;3.396;2023-05-28T01:51:55;7.92;;;2.92;;
14704;SDS011;7442;50.840;3.396;2023-05-28T01:54:42;5.05;;;3.35;;
14704;SDS011;7442;50.840;3.396;2023-05-28T01:57:28;3.75;;;2.87;;
14704;SDS011;7442;50.840;3.396;2023-05-28T02:00:14;4.47;;;2.98;;
14704;SDS011;7442;50.840;3.396;2023-05-28T02:03:01;4.10;;;3.02;;
14704;SDS011;7442;50.840;3.396;2023-05-28T02:05:48;5.45;;;3.17;;
14704;SDS011;7442;50.840;3.396;2023-05-28T02:08:35;4.83;;;3.00;;
14704;SDS011;7442;50.840;3.396;2023-05-28T02:11:21;6.25;;;3.45;;
14704;SDS011;7442;50.840;3.396;2023-05-28T02:14:07;5.67;;;3.20;;
14704;SDS011;7442;50.840;3.396;2023-05-28T02:16:55;3.77;;;2.87;;
14704;SDS011;7442;50.840;3.396;2023-05-28T02:19:42;4.67;;;3.20;;
14704;SDS011;7442;50.840;3.396;2023-05-28T02:22:28;3.58;;;2.67;;
14704;SDS011;7442;50.840;3.396;2023-05-28T02:25:14;5.10;;;2.85;;
14704;SDS011;7442;50.840;3.396;2023-05-28T02:28:01;3.95;;;2.77;;
14704;SDS011;7442;50.840;3.396;2023-05-28T02:30:48;4.20;;;2.75;;
14704;SDS011;7442;50.840;3.396;2023-05-28T02:33:34;6.45;;;2.80;;
14704;SDS011;7442;50.840;3.396;2023-05-28T02:36:22;4.75;;;3.08;;
14704;SDS011;7442;50.840;3.396;2023-05-28T02:39:08;3.40;;;2.55;;
14704;SDS011;7442;50.840;3.396;2023-05-28T02:41:55;6.08;;;2.75;;
14704;SDS011;7442;50.840;3.396;2023-05-28T02:44:41;3.70;;;2.87;;
14704;SDS011;7442;50.840;3.396;2023-05-28T02:47:27;3.87;;;2.50;;
14704;SDS011;7442;50.840;3.396;2023-05-28T02:50:14;4.97;;;2.60;;
14704;SDS011;7442;50.840;3.396;2023-05-28T02:53:01;3.42;;;3.00;;
14704;SDS011;7442;50.840;3.396;2023-05-28T02:55:48;3.12;;;2.55;;
14704;SDS011;7442;50.840;3.396;2023-05-28T02:58:35;4.20;;;2.90;;
14704;SDS011;7442;50.840;3.396;2023-05-28T03:01:21;3.87;;;2.72;;
14704;SDS011;7442;50.840;3.396;2023-05-28T03:04:07;3.17;;;2.50;;
14704;SDS011;7442;50.840;3.396;2023-05-28T03:06:54;4.25;;;2.75;;
14704;SDS011;7442;50.840;3.396;2023-05-28T03:09:40;4.30;;;2.80;;
14704;SDS011;7442;50.840;3.396;2023-05-28T03:12:27;4.80;;;2.80;;
14704;SDS011;7442;50.840;3.396;2023-05-28T03:15:13;4.67;;;3.05;;
14704;SDS011;7442;50.840;3.396;2023-05-28T03:18:00;4.12;;;2.65;;
14704;SDS011;7442;50.840;3.396;2023-05-28T03:20:48;5.80;;;2.72;;
14704;SDS011;7442;50.840;3.396;2023-05-28T03:23:35;3.47;;;2.90;;
14704;SDS011;7442;50.840;3.396;2023-05-28T03:26:21;3.37;;;2.67;;
14704;SDS011;7442;50.840;3.396;2023-05-28T03:29:07;5.12;;;2.70;;
14704;SDS011;7442;50.840;3.396;2023-05-28T03:31:54;3.72;;;2.67;;
14704;SDS011;7442;50.840;3.396;2023-05-28T03:34:40;4.35;;;2.90;;
14704;SDS011;7442;50.840;3.396;2023-05-28T03:37:26;3.12;;;2.67;;
14704;SDS011;7442;50.840;3.396;2023-05-28T03:40:12;4.87;;;2.77;;
14704;SDS011;7442;50.840;3.396;2023-05-28T03:42:58;4.15;;;2.75;;
14704;SDS011;7442;50.840;3.396;2023-05-28T03:45:45;3.85;;;2.60;;
14704;SDS011;7442;50.840;3.396;2023-05-28T03:48:31;5.17;;;2.77;;
14704;SDS011;7442;50.840;3.396;2023-05-28T03:51:18;3.67;;;2.77;;
14704;SDS011;7442;50.840;3.396;2023-05-28T03:54:04;4.25;;;2.87;;
14704;SDS011;7442;50.840;3.396;2023-05-28T03:56:50;3.85;;;2.80;;
14704;SDS011;7442;50.840;3.396;2023-05-28T03:59:36;4.50;;;2.95;;
14704;SDS011;7442;50.840;3.396;2023-05-28T04:02:23;3.00;;;2.60;;
14704;SDS011;7442;50.840;3.396;2023-05-28T04:05:10;4.33;;;2.80;;
14704;SDS011;7442;50.840;3.396;2023-05-28T04:07:57;4.72;;;2.60;;
14704;SDS011;7442;50.840;3.396;2023-05-28T04:10:43;3.27;;;2.62;;
14704;SDS011;7442;50.840;3.396;2023-05-28T04:13:30;4.85;;;2.90;;
14704;SDS011;7442;50.840;3.396;2023-05-28T04:16:16;4.50;;;2.95;;
14704;SDS011;7442;50.840;3.396;2023-05-28T04:19:04;3.30;;;2.55;;
14704;SDS011;7442;50.840;3.396;2023-05-28T04:21:50;4.22;;;2.67;;
14704;SDS011;7442;50.840;3.396;2023-05-28T04:24:36;4.03;;;3.05;;
14704;SDS011;7442;50.840;3.396;2023-05-28T04:27:22;3.85;;;2.77;;
14704;SDS011;7442;50.840;3.396;2023-05-28T04:30:09;3.85;;;2.77;;
14704;SDS011;7442;50.840;3.396;2023-05-28T04:32:56;4.40;;;2.37;;
14704;SDS011;7442;50.840;3.396;2023-05-28T04:35:43;3.40;;;2.80;;
14704;SDS011;7442;50.840;3.396;2023-05-28T04:38:29;4.53;;;2.55;;
14704;SDS011;7442;50.840;3.396;2023-05-28T04:41:18;2.95;;;2.62;;
14704;SDS011;7442;50.840;3.396;2023-05-28T04:44:04;4.47;;;2.60;;
14704;SDS011;7442;50.840;3.396;2023-05-28T04:46:51;3.12;;;2.37;;
14704;SDS011;7442;50.840;3.396;2023-05-28T04:49:37;4.47;;;2.90;;
14704;SDS011;7442;50.840;3.396;2023-05-28T04:52:25;3.65;;;2.37;;
14704;SDS011;7442;50.840;3.396;2023-05-28T04:55:11;3.27;;;2.85;;
14704;SDS011;7442;50.840;3.396;2023-05-28T04:58:00;3.00;;;2.70;;
14704;SDS011;7442;50.840;3.396;2023-05-28T05:00:47;4.17;;;2.85;;
14704;SDS011;7442;50.840;3.396;2023-05-28T05:03:33;3.85;;;2.62;;
14704;SDS011;7442;50.840;3.396;2023-05-28T05:06:20;6.15;;;2.75;;
14704;SDS011;7442;50.840;3.396;2023-05-28T05:09:06;3.80;;;2.47;;
14704;SDS011;7442;50.840;3.396;2023-05-28T05:11:53;3.83;;;2.90;;
14704;SDS011;7442;50.840;3.396;2023-05-28T05:14:39;3.37;;;2.58;;
14704;SDS011;7442;50.840;3.396;2023-05-28T05:17:26;3.58;;;2.52;;
14704;SDS011;7442;50.840;3.396;2023-05-28T05:20:12;4.03;;;2.70;;
14704;SDS011;7442;50.840;3.396;2023-05-28T05:22:58;4.25;;;2.62;;
14704;SDS011;7442;50.840;3.396;2023-05-28T05:25:45;4.70;;;2.55;;
14704;SDS011;7442;50.840;3.396;2023-05-28T05:28:31;4.45;;;3.00;;
14704;SDS011;7442;50.840;3.396;2023-05-28T05:31:18;3.75;;;2.80;;
14704;SDS011;7442;50.840;3.396;2023-05-28T05:34:04;4.22;;;2.87;;
14704;SDS011;7442;50.840;3.396;2023-05-28T05:36:51;3.55;;;2.65;;
14704;SDS011;7442;50.840;3.396;2023-05-28T05:39:37;4.72;;;3.00;;
14704;SDS011;7442;50.840;3.396;2023-05-28T05:42:24;4.53;;;3.10;;
14704;SDS011;7442;50.840;3.396;2023-05-28T05:45:10;4.12;;;2.83;;
14704;SDS011;7442;50.840;3.396;2023-05-28T05:47:56;3.45;;;2.50;;
14704;SDS011;7442;50.840;3.396;2023-05-28T05:53:39;3.15;;;2.62;;
14704;SDS011;7442;50.840;3.396;2023-05-28T05:56:27;6.53;;;3.05;;
14704;SDS011;7442;50.840;3.396;2023-05-28T05:59:13;4.22;;;2.87;;
14704;SDS011;7442;50.840;3.396;2023-05-28T06:02:00;4.15;;;2.58;;
14704;SDS011;7442;50.840;3.396;2023-05-28T06:04:46;4.67;;;3.25;;
14704;SDS011;7442;50.840;3.396;2023-05-28T06:07:33;7.78;;;4.47;;
14704;SDS011;7442;50.840;3.396;2023-05-28T06:10:20;10.80;;;5.22;;
14704;SDS011;7442;50.840;3.396;2023-05-28T06:13:06;9.60;;;5.97;;
14704;SDS011;7442;50.840;3.396;2023-05-28T06:15:53;10.90;;;6.05;;
14704;SDS011;7442;50.840;3.396;2023-05-28T06:18:39;12.43;;;5.10;;
14704;SDS011;7442;50.840;3.396;2023-05-28T06:21:26;8.75;;;5.67;;
14704;SDS011;7442;50.840;3.396;2023-05-28T06:24:13;11.68;;;5.90;;
14704;SDS011;7442;50.840;3.396;2023-05-28T06:26:59;9.00;;;5.47;;
14704;SDS011;7442;50.840;3.396;2023-05-28T06:29:47;7.92;;;5.08;;
14704;SDS011;7442;50.840;3.396;2023-05-28T06:32:33;11.80;;;5.75;;
14704;SDS011;7442;50.840;3.396;2023-05-28T06:35:20;12.80;;;7.53;;
14704;SDS011;7442;50.840;3.396;2023-05-28T06:38:06;13.93;;;8.08;;
14704;SDS011;7442;50.840;3.396;2023-05-28T06:40:53;14.10;;;6.78;;
14704;SDS011;7442;50.840;3.396;2023-05-28T06:43:39;14.33;;;6.62;;
14704;SDS011;7442;50.840;3.396;2023-05-28T06:46:25;12.98;;;6.12;;
14704;SDS011;7442;50.840;3.396;2023-05-28T06:49:12;12.85;;;6.47;;
14704;SDS011;7442;50.840;3.396;2023-05-28T06:51:59;10.32;;;6.20;;
14704;SDS011;7442;50.840;3.396;2023-05-28T06:54:45;16.80;;;6.62;;
14704;SDS011;7442;50.840;3.396;2023-05-28T06:57:34;13.93;;;6.17;;
14704;SDS011;7442;50.840;3.396;2023-05-28T07:00:21;13.38;;;6.30;;
14704;SDS011;7442;50.840;3.396;2023-05-28T07:03:08;11.18;;;5.37;;
14704;SDS011;7442;50.840;3.396;2023-05-28T07:05:55;10.15;;;5.03;;
14704;SDS011;7442;50.840;3.396;2023-05-28T07:08:41;11.22;;;5.45;;
14704;SDS011;7442;50.840;3.396;2023-05-28T07:11:31;11.50;;;5.75;;
14704;SDS011;7442;50.840;3.396;2023-05-28T07:14:17;8.25;;;4.72;;
14704;SDS011;7442;50.840;3.396;2023-05-28T07:17:03;8.48;;;5.08;;
14704;SDS011;7442;50.840;3.396;2023-05-28T07:19:50;11.97;;;5.45;;
14704;SDS011;7442;50.840;3.396;2023-05-28T07:22:36;11.35;;;5.00;;
14704;SDS011;7442;50.840;3.396;2023-05-28T07:25:22;13.05;;;5.70;;
14704;SDS011;7442;50.840;3.396;2023-05-28T07:28:08;9.25;;;4.85;;
14704;SDS011;7442;50.840;3.396;2023-05-28T07:30:55;12.50;;;6.22;;
14704;SDS011;7442;50.840;3.396;2023-05-28T07:33:41;9.48;;;5.08;;
14704;SDS011;7442;50.840;3.396;2023-05-28T07:36:27;11.22;;;4.87;;
14704;SDS011;7442;50.840;3.396;2023-05-28T07:39:14;11.90;;;5.45;;
14704;SDS011;7442;50.840;3.396;2023-05-28T07:42:00;19.80;;;5.97;;
14704;SDS011;7442;50.840;3.396;2023-05-28T07:44:46;10.28;;;4.83;;
14704;SDS011;7442;50.840;3.396;2023-05-28T07:47:33;13.68;;;5.40;;
14704;SDS011;7442;50.840;3.396;2023-05-28T07:50:19;12.53;;;5.85;;
14704;SDS011;7442;50.840;3.396;2023-05-28T07:53:05;13.05;;;5.35;;
14704;SDS011;7442;50.840;3.396;2023-05-28T07:55:52;12.73;;;5.92;;
14704;SDS011;7442;50.840;3.396;2023-05-28T07:58:44;15.75;;;6.30;;
14704;SDS011;7442;50.840;3.396;2023-05-28T08:01:31;15.40;;;6.72;;
14704;SDS011;7442;50.840;3.396;2023-05-28T08:04:18;15.03;;;6.50;;
14704;SDS011;7442;50.840;3.396;2023-05-28T08:07:04;18.23;;;6.30;;
14704;SDS011;7442;50.840;3.396;2023-05-28T08:09:51;15.98;;;6.42;;
14704;SDS011;7442;50.840;3.396;2023-05-28T08:12:37;16.42;;;5.92;;
14704;SDS011;7442;50.840;3.396;2023-05-28T08:15:24;13.15;;;6.28;;
14704;SDS011;7442;50.840;3.396;2023-05-28T08:18:10;13.18;;;6.00;;
14704;SDS011;7442;50.840;3.396;2023-05-28T08:20:57;15.95;;;6.35;;
14704;SDS011;7442;50.840;3.396;2023-05-28T08:23:43;9.85;;;5.85;;
14704;SDS011;7442;50.840;3.396;2023-05-28T08:26:29;11.85;;;5.50;;
14704;SDS011;7442;50.840;3.396;2023-05-28T08:29:15;13.50;;;5.78;;
14704;SDS011;7442;50.840;3.396;2023-05-28T08:32:02;15.65;;;6.37;;
14704;SDS011;7442;50.840;3.396;2023-05-28T08:34:49;10.35;;;5.70;;
14704;SDS011;7442;50.840;3.396;2023-05-28T08:37:36;11.45;;;5.70;;
14704;SDS011;7442;50.840;3.396;2023-05-28T08:40:23;14.80;;;5.87;;
14704;SDS011;7442;50.840;3.396;2023-05-28T08:43:10;14.43;;;6.17;;
14704;SDS011;7442;50.840;3.396;2023-05-28T08:45:57;14.80;;;6.45;;
14704;SDS011;7442;50.840;3.396;2023-05-28T08:48:43;12.33;;;6.40;;
14704;SDS011;7442;50.840;3.396;2023-05-28T08:51:31;13.83;;;5.70;;
14704;SDS011;7442;50.840;3.396;2023-05-28T08:54:20;12.75;;;5.90;;
14704;SDS011;7442;50.840;3.396;2023-05-28T08:57:06;13.58;;;6.40;;
14704;SDS011;7442;50.840;3.396;2023-05-28T08:59:54;11.08;;;5.42;;
14704;SDS011;7442;50.840;3.396;2023-05-28T09:02:42;11.97;;;6.25;;
14704;SDS011;7442;50.840;3.396;2023-05-28T09:05:29;11.97;;;5.60;;
14704;SDS011;7442;50.840;3.396;2023-05-28T09:08:16;12.75;;;5.90;;
14704;SDS011;7442;50.840;3.396;2023-05-28T09:11:09;14.07;;;5.85;;
14704;SDS011;7442;50.840;3.396;2023-05-28T09:13:56;11.18;;;5.53;;
14704;SDS011;7442;50.840;3.396;2023-05-28T09:16:44;13.35;;;5.40;;
14704;SDS011;7442;50.840;3.396;2023-05-28T09:19:30;10.30;;;5.35;;
14704;SDS011;7442;50.840;3.396;2023-05-28T09:22:17;10.30;;;5.70;;
14704;SDS011;7442;50.840;3.396;2023-05-28T09:25:09;9.73;;;5.47;;
14704;SDS011;7442;50.840;3.396;2023-05-28T09:27:53;10.35;;;5.30;;
14704;SDS011;7442;50.840;3.396;2023-05-28T09:30:40;10.15;;;5.28;;
14704;SDS011;7442;50.840;3.396;2023-05-28T09:33:26;14.28;;;5.87;;
14704;SDS011;7442;50.840;3.396;2023-05-28T09:36:17;10.20;;;5.70;;
14704;SDS011;7442;50.840;3.396;2023-05-28T09:39:06;9.63;;;4.85;;
14704;SDS011;7442;50.840;3.396;2023-05-28T09:42:03;9.90;;;5.25;;
14704;SDS011;7442;50.840;3.396;2023-05-28T09:44:57;8.15;;;4.87;;
14704;SDS011;7442;50.840;3.396;2023-05-28T09:47:45;10.38;;;5.83;;
14704;SDS011;7442;50.840;3.396;2023-05-28T09:50:31;11.12;;;4.97;;
14704;SDS011;7442;50.840;3.396;2023-05-28T09:53:18;7.42;;;4.60;;
14704;SDS011;7442;50.840;3.396;2023-05-28T09:56:05;9.33;;;5.25;;
14704;SDS011;7442;50.840;3.396;2023-05-28T09:58:54;9.43;;;4.87;;
14704;SDS011;7442;50.840;3.396;2023-05-28T10:01:54;8.48;;;4.72;;
14704;SDS011;7442;50.840;3.396;2023-05-28T10:04:41;9.83;;;5.28;;
14704;SDS011;7442;50.840;3.396;2023-05-28T10:07:29;11.25;;;4.92;;
14704;SDS011;7442;50.840;3.396;2023-05-28T10:10:17;14.45;;;5.25;;
14704;SDS011;7442;50.840;3.396;2023-05-28T10:13:05;8.33;;;4.80;;
14704;SDS011;7442;50.840;3.396;2023-05-28T10:15:53;8.78;;;4.40;;
14704;SDS011;7442;50.840;3.396;2023-05-28T10:18:41;10.72;;;4.87;;
14704;SDS011;7442;50.840;3.396;2023-05-28T10:21:29;7.15;;;4.75;;
14704;SDS011;7442;50.840;3.396;2023-05-28T10:24:15;9.05;;;4.87;;
14704;SDS011;7442;50.840;3.396;2023-05-28T10:27:10;8.58;;;5.03;;
14704;SDS011;7442;50.840;3.396;2023-05-28T10:29:52;10.35;;;5.30;;
14704;SDS011;7442;50.840;3.396;2023-05-28T10:32:39;8.25;;;4.58;;
14704;SDS011;7442;50.840;3.396;2023-05-28T10:35:26;7.42;;;4.45;;
14704;SDS011;7442;50.840;3.396;2023-05-28T10:38:12;7.62;;;4.10;;
14704;SDS011;7442;50.840;3.396;2023-05-28T10:40:59;7.95;;;4.35;;
14704;SDS011;7442;50.840;3.396;2023-05-28T10:43:46;7.83;;;4.42;;
14704;SDS011;7442;50.840;3.396;2023-05-28T10:46:37;6.62;;;3.98;;
14704;SDS011;7442;50.840;3.396;2023-05-28T10:49:24;7.47;;;4.33;;
14704;SDS011;7442;50.840;3.396;2023-05-28T10:52:20;8.78;;;4.25;;
14704;SDS011;7442;50.840;3.396;2023-05-28T10:55:01;7.45;;;4.58;;
14704;SDS011;7442;50.840;3.396;2023-05-28T10:57:49;5.75;;;4.03;;
14704;SDS011;7442;50.840;3.396;2023-05-28T11:00:39;6.47;;;3.90;;
14704;SDS011;7442;50.840;3.396;2023-05-28T11:06:33;7.50;;;4.05;;
14704;SDS011;7442;50.840;3.396;2023-05-28T11:09:21;9.73;;;4.30;;
14704;SDS011;7442;50.840;3.396;2023-05-28T11:12:08;8.53;;;4.12;;
14704;SDS011;7442;50.840;3.396;2023-05-28T11:14:54;7.45;;;4.15;;
14704;SDS011;7442;50.840;3.396;2023-05-28T11:17:41;6.87;;;3.90;;
14704;SDS011;7442;50.840;3.396;2023-05-28T11:20:28;8.25;;;4.17;;
14704;SDS011;7442;50.840;3.396;2023-05-28T11:23:15;6.10;;;3.98;;
14704;SDS011;7442;50.840;3.396;2023-05-28T11:26:01;5.83;;;3.87;;
14704;SDS011;7442;50.840;3.396;2023-05-28T11:28:51;5.17;;;4.05;;
14704;SDS011;7442;50.840;3.396;2023-05-28T11:31:38;7.62;;;4.55;;
14704;SDS011;7442;50.840;3.396;2023-05-28T11:34:25;6.95;;;3.55;;
14704;SDS011;7442;50.840;3.396;2023-05-28T11:37:13;4.70;;;3.60;;
14704;SDS011;7442;50.840;3.396;2023-05-28T11:40:00;9.03;;;4.15;;
14704;SDS011;7442;50.840;3.396;2023-05-28T11:42:57;8.25;;;3.98;;
14704;SDS011;7442;50.840;3.396;2023-05-28T11:45:44;7.10;;;4.37;;
14704;SDS011;7442;50.840;3.396;2023-05-28T11:48:35;6.80;;;3.60;;
14704;SDS011;7442;50.840;3.396;2023-05-28T11:51:22;7.25;;;3.92;;
14704;SDS011;7442;50.840;3.396;2023-05-28T11:54:09;5.42;;;3.67;;
14704;SDS011;7442;50.840;3.396;2023-05-28T11:56:55;5.78;;;3.52;;
14704;SDS011;7442;50.840;3.396;2023-05-28T11:59:52;6.12;;;4.03;;
14704;SDS011;7442;50.840;3.396;2023-05-28T12:02:32;6.00;;;3.90;;
14704;SDS011;7442;50.840;3.396;2023-05-28T12:05:19;7.90;;;4.10;;
14704;SDS011;7442;50.840;3.396;2023-05-28T12:08:05;6.90;;;3.47;;
14704;SDS011;7442;50.840;3.396;2023-05-28T12:10:52;4.95;;;3.40;;
14704;SDS011;7442;50.840;3.396;2023-05-28T12:13:40;6.58;;;3.72;;
14704;SDS011;7442;50.840;3.396;2023-05-28T12:16:27;6.03;;;3.62;;
14704;SDS011;7442;50.840;3.396;2023-05-28T12:19:14;5.60;;;3.72;;
14704;SDS011;7442;50.840;3.396;2023-05-28T12:22:01;4.80;;;3.52;;
14704;SDS011;7442;50.840;3.396;2023-05-28T12:24:50;5.90;;;3.90;;
14704;SDS011;7442;50.840;3.396;2023-05-28T12:27:38;6.87;;;3.80;;
14704;SDS011;7442;50.840;3.396;2023-05-28T12:30:25;5.80;;;3.62;;
14704;SDS011;7442;50.840;3.396;2023-05-28T12:33:11;5.20;;;3.90;;
14704;SDS011;7442;50.840;3.396;2023-05-28T12:35:57;7.42;;;3.55;;
14704;SDS011;7442;50.840;3.396;2023-05-28T12:38:45;5.28;;;3.70;;
14704;SDS011;7442;50.840;3.396;2023-05-28T12:41:31;5.65;;;3.62;;
14704;SDS011;7442;50.840;3.396;2023-05-28T12:44:18;7.62;;;3.62;;
14704;SDS011;7442;50.840;3.396;2023-05-28T12:47:05;5.03;;;3.72;;
14704;SDS011;7442;50.840;3.396;2023-05-28T12:49:51;5.45;;;3.80;;
14704;SDS011;7442;50.840;3.396;2023-05-28T12:52:38;5.90;;;3.77;;
14704;SDS011;7442;50.840;3.396;2023-05-28T12:55:24;4.40;;;3.30;;
14704;SDS011;7442;50.840;3.396;2023-05-28T12:58:11;5.40;;;3.42;;
14704;SDS011;7442;50.840;3.396;2023-05-28T13:00:57;6.40;;;3.58;;
14704;SDS011;7442;50.840;3.396;2023-05-28T13:03:43;5.62;;;3.42;;
14704;SDS011;7442;50.840;3.396;2023-05-28T13:06:30;4.78;;;3.45;;
14704;SDS011;7442;50.840;3.396;2023-05-28T13:09:17;5.72;;;3.45;;
14704;SDS011;7442;50.840;3.396;2023-05-28T13:12:03;4.83;;;3.52;;
14704;SDS011;7442;50.840;3.396;2023-05-28T13:14:52;4.87;;;3.58;;
14704;SDS011;7442;50.840;3.396;2023-05-28T13:17:38;4.83;;;3.22;;
14704;SDS011;7442;50.840;3.396;2023-05-28T13:20:25;4.90;;;3.50;;
14704;SDS011;7442;50.840;3.396;2023-05-28T13:23:11;5.17;;;3.70;;
14704;SDS011;7442;50.840;3.396;2023-05-28T13:25:59;5.22;;;3.40;;
14704;SDS011;7442;50.840;3.396;2023-05-28T13:28:45;3.98;;;3.08;;
14704;SDS011;7442;50.840;3.396;2023-05-28T13:31:32;5.50;;;3.25;;
14704;SDS011;7442;50.840;3.396;2023-05-28T13:34:19;5.30;;;3.05;;
14704;SDS011;7442;50.840;3.396;2023-05-28T13:37:05;4.58;;;3.37;;
14704;SDS011;7442;50.840;3.396;2023-05-28T13:39:51;4.53;;;3.30;;
14704;SDS011;7442;50.840;3.396;2023-05-28T13:42:38;4.80;;;3.27;;
14704;SDS011;7442;50.840;3.396;2023-05-28T13:45:25;4.85;;;3.47;;
14704;SDS011;7442;50.840;3.396;2023-05-28T13:48:11;3.62;;;3.20;;
14704;SDS011;7442;50.840;3.396;2023-05-28T13:50:57;4.30;;;3.10;;
14704;SDS011;7442;50.840;3.396;2023-05-28T13:53:44;4.25;;;3.40;;
14704;SDS011;7442;50.840;3.396;2023-05-28T13:56:31;5.37;;;3.30;;
14704;SDS011;7442;50.840;3.396;2023-05-28T13:59:17;4.83;;;3.25;;
14704;SDS011;7442;50.840;3.396;2023-05-28T14:02:03;4.65;;;3.37;;
14704;SDS011;7442;50.840;3.396;2023-05-28T14:04:49;5.33;;;3.30;;
14704;SDS011;7442;50.840;3.396;2023-05-28T14:07:36;4.40;;;3.17;;
14704;SDS011;7442;50.840;3.396;2023-05-28T14:10:22;3.47;;;2.95;;
14704;SDS011;7442;50.840;3.396;2023-05-28T14:13:09;4.47;;;3.40;;
14704;SDS011;7442;50.840;3.396;2023-05-28T14:15:55;4.33;;;3.12;;
14704;SDS011;7442;50.840;3.396;2023-05-28T14:18:43;5.12;;;2.95;;
14704;SDS011;7442;50.840;3.396;2023-05-28T14:21:29;5.80;;;3.30;;
14704;SDS011;7442;50.840;3.396;2023-05-28T14:24:16;4.35;;;3.15;;
14704;SDS011;7442;50.840;3.396;2023-05-28T14:27:03;5.20;;;3.45;;
14704;SDS011;7442;50.840;3.396;2023-05-28T14:29:50;5.10;;;3.30;;
14704;SDS011;7442;50.840;3.396;2023-05-28T14:32:36;6.10;;;3.30;;
14704;SDS011;7442;50.840;3.396;2023-05-28T14:35:23;3.50;;;3.12;;
14704;SDS011;7442;50.840;3.396;2023-05-28T14:38:09;4.10;;;3.30;;
14704;SDS011;7442;50.840;3.396;2023-05-28T14:40:56;3.58;;;2.92;;
14704;SDS011;7442;50.840;3.396;2023-05-28T14:43:42;4.80;;;3.30;;
14704;SDS011;7442;50.840;3.396;2023-05-28T14:46:29;4.78;;;3.10;;
14704;SDS011;7442;50.840;3.396;2023-05-28T14:49:15;4.97;;;3.20;;
14704;SDS011;7442;50.840;3.396;2023-05-28T14:52:21;6.03;;;3.42;;
14704;SDS011;7442;50.840;3.396;2023-05-28T14:55:09;4.25;;;3.12;;
14704;SDS011;7442;50.840;3.396;2023-05-28T14:57:55;6.40;;;3.25;;
14704;SDS011;7442;50.840;3.396;2023-05-28T15:00:41;4.85;;;3.27;;
14704;SDS011;7442;50.840;3.396;2023-05-28T15:03:30;2.92;;;2.62;;
14704;SDS011;7442;50.840;3.396;2023-05-28T15:06:17;3.75;;;2.90;;
14704;SDS011;7442;50.840;3.396;2023-05-28T15:09:03;3.55;;;3.00;;
14704;SDS011;7442;50.840;3.396;2023-05-28T15:11:50;5.00;;;3.30;;
14704;SDS011;7442;50.840;3.396;2023-05-28T15:14:36;4.33;;;3.20;;
14704;SDS011;7442;50.840;3.396;2023-05-28T15:17:22;5.03;;;3.10;;
14704;SDS011;7442;50.840;3.396;2023-05-28T15:20:09;4.40;;;3.30;;
14704;SDS011;7442;50.840;3.396;2023-05-28T15:22:55;4.55;;;3.33;;
14704;SDS011;7442;50.840;3.396;2023-05-28T15:25:42;4.72;;;3.45;;
14704;SDS011;7442;50.840;3.396;2023-05-28T15:28:29;4.37;;;3.12;;
14704;SDS011;7442;50.840;3.396;2023-05-28T15:31:15;6.45;;;3.70;;
14704;SDS011;7442;50.840;3.396;2023-05-28T15:34:05;4.62;;;2.98;;
14704;SDS011;7442;50.840;3.396;2023-05-28T15:36:51;3.98;;;3.22;;
14704;SDS011;7442;50.840;3.396;2023-05-28T15:39:38;3.85;;;3.45;;
14704;SDS011;7442;50.840;3.396;2023-05-28T15:42:24;5.12;;;3.37;;
14704;SDS011;7442;50.840;3.396;2023-05-28T15:45:11;5.80;;;3.10;;
14704;SDS011;7442;50.840;3.396;2023-05-28T15:47:58;5.00;;;3.35;;
14704;SDS011;7442;50.840;3.396;2023-05-28T15:50:45;4.58;;;3.10;;
14704;SDS011;7442;50.840;3.396;2023-05-28T15:53:31;3.45;;;2.87;;
14704;SDS011;7442;50.840;3.396;2023-05-28T15:56:17;3.83;;;3.00;;
14704;SDS011;7442;50.840;3.396;2023-05-28T15:59:04;4.37;;;3.35;;
14704;SDS011;7442;50.840;3.396;2023-05-28T16:01:51;4.05;;;2.83;;
14704;SDS011;7442;50.840;3.396;2023-05-28T16:04:38;4.00;;;3.17;;
14704;SDS011;7442;50.840;3.396;2023-05-28T16:07:25;5.10;;;3.42;;
14704;SDS011;7442;50.840;3.396;2023-05-28T16:10:13;4.67;;;3.20;;
14704;SDS011;7442;50.840;3.396;2023-05-28T16:13:00;3.95;;;3.05;;
14704;SDS011;7442;50.840;3.396;2023-05-28T16:15:50;3.58;;;3.00;;
14704;SDS011;7442;50.840;3.396;2023-05-28T16:18:39;4.47;;;3.30;;
14704;SDS011;7442;50.840;3.396;2023-05-28T16:21:27;4.20;;;3.08;;
14704;SDS011;7442;50.840;3.396;2023-05-28T16:24:13;5.03;;;3.50;;
14704;SDS011;7442;50.840;3.396;2023-05-28T16:27:01;6.40;;;3.30;;
14704;SDS011;7442;50.840;3.396;2023-05-28T16:29:48;4.12;;;3.33;;
14704;SDS011;7442;50.840;3.396;2023-05-28T16:32:35;5.00;;;3.52;;
14704;SDS011;7442;50.840;3.396;2023-05-28T16:35:22;4.87;;;3.25;;
14704;SDS011;7442;50.840;3.396;2023-05-28T16:38:10;5.00;;;3.20;;
14704;SDS011;7442;50.840;3.396;2023-05-28T16:40:57;5.72;;;3.62;;
14704;SDS011;7442;50.840;3.396;2023-05-28T16:43:44;5.97;;;3.55;;
14704;SDS011;7442;50.840;3.396;2023-05-28T16:46:31;4.50;;;3.45;;
14704;SDS011;7442;50.840;3.396;2023-05-28T16:49:18;4.67;;;3.58;;
14704;SDS011;7442;50.840;3.396;2023-05-28T16:52:05;6.55;;;3.47;;
14704;SDS011;7442;50.840;3.396;2023-05-28T16:54:52;10.85;;;4.37;;
14704;SDS011;7442;50.840;3.396;2023-05-28T16:57:40;5.67;;;3.52;;
14704;SDS011;7442;50.840;3.396;2023-05-28T17:00:26;8.63;;;4.33;;
14704;SDS011;7442;50.840;3.396;2023-05-28T17:03:12;5.72;;;4.05;;